createdAt,value
2022-10-05T00:00:01.753Z,10.96
2022-10-05T00:05:01.383Z,10.95
2022-10-05T00:10:01.367Z,10.89
2022-10-05T00:15:01.345Z,10.96
2022-10-05T00:20:02.224Z,10.87
2022-10-05T00:25:02.287Z,10.84
2022-10-05T00:30:01.727Z,10.9
2022-10-05T00:35:02.257Z,10.89
2022-10-05T00:40:02.240Z,10.99
2022-10-05T00:45:01.328Z,10.86
2022-10-05T00:50:01.543Z,10.86
2022-10-05T00:55:02.012Z,11.03
2022-10-05T01:00:02.073Z,10.81
2022-10-05T01:05:01.731Z,10.75
2022-10-05T01:10:01.748Z,10.71
2022-10-05T01:15:01.609Z,10.67
2022-10-05T01:20:01.437Z,10.67
2022-10-05T01:25:01.721Z,10.62
2022-10-05T01:30:01.487Z,10.53
2022-10-05T01:35:01.283Z,10.42
2022-10-05T01:40:02.228Z,10.52
2022-10-05T01:45:02.277Z,10.51
2022-10-05T01:50:01.699Z,10.71
2022-10-05T01:55:02.122Z,10.66
2022-10-05T02:00:01.591Z,10.68
2022-10-05T02:05:02.885Z,10.67
2022-10-05T02:10:01.855Z,10.67
2022-10-05T02:15:01.319Z,10.6
2022-10-05T02:20:02.257Z,10.65
2022-10-05T02:25:01.808Z,10.69
2022-10-05T02:30:01.815Z,10.7
2022-10-05T02:35:01.420Z,10.71
2022-10-05T02:40:01.974Z,10.74
2022-10-05T02:45:01.786Z,10.78
2022-10-05T02:50:01.739Z,10.73
2022-10-05T02:55:01.331Z,10.7
2022-10-05T03:00:02.054Z,10.72
2022-10-05T03:05:01.627Z,10.79
2022-10-05T03:10:01.896Z,10.79
2022-10-05T03:15:01.852Z,10.84
2022-10-05T03:20:02.154Z,11.03
2022-10-05T03:25:02.074Z,11.08
2022-10-05T03:30:02.058Z,11.18
2022-10-05T03:35:01.277Z,11.23
2022-10-05T03:40:01.387Z,11.27
2022-10-05T03:45:01.878Z,11.34
2022-10-05T03:50:02.133Z,11.19
2022-10-05T03:55:01.842Z,11.24
2022-10-05T04:00:01.894Z,11.32
2022-10-05T04:05:02.151Z,11.25
2022-10-05T04:10:02.159Z,11.4
2022-10-05T04:15:02.107Z,11.18
2022-10-05T04:20:01.982Z,11.12
2022-10-05T04:25:01.338Z,11.37
2022-10-05T04:30:01.392Z,11.14
2022-10-05T04:35:01.443Z,11.14
2022-10-05T04:40:01.269Z,11.26
2022-10-05T04:45:01.345Z,11.25
2022-10-05T04:50:02.088Z,11.49
2022-10-05T04:55:01.778Z,11.23
2022-10-05T05:00:01.912Z,11.41
2022-10-05T05:05:01.620Z,11.18
2022-10-05T05:10:01.881Z,11.24
2022-10-05T05:15:01.978Z,11.29
2022-10-05T05:20:02.078Z,11.22
2022-10-05T05:25:01.763Z,11.02
2022-10-05T05:30:01.285Z,10.86
2022-10-05T05:35:01.574Z,10.89
2022-10-05T05:40:02.162Z,10.83
2022-10-05T05:45:02.213Z,10.8
2022-10-05T05:50:07.010Z,10.81
2022-10-05T05:55:01.719Z,10.85
2022-10-05T06:00:01.941Z,10.85
2022-10-05T06:05:01.981Z,10.9
2022-10-05T06:10:01.343Z,10.8
2022-10-05T06:15:01.344Z,10.85
2022-10-05T06:20:05.265Z,10.99
2022-10-05T06:25:02.102Z,11.12
2022-10-05T06:30:02.264Z,11.15
2022-10-05T06:35:01.294Z,11.33
2022-10-05T06:40:02.190Z,11.3
2022-10-05T06:45:01.949Z,11.36
2022-10-05T06:50:01.714Z,11.34
2022-10-05T06:55:02.060Z,11.56
2022-10-05T07:00:02.126Z,11.46
2022-10-05T07:05:01.630Z,11.72
2022-10-05T07:10:01.701Z,11.64
2022-10-05T07:15:01.608Z,11.88
2022-10-05T07:20:01.279Z,11.78
2022-10-05T07:25:01.450Z,11.84
2022-10-05T07:30:02.013Z,12.11
2022-10-05T07:35:01.253Z,11.97
2022-10-05T07:40:01.747Z,12.02
2022-10-05T07:45:01.790Z,12.15
2022-10-05T07:50:01.672Z,12.27
2022-10-05T07:55:01.466Z,12.44
2022-10-05T08:00:01.418Z,12.63
2022-10-05T08:05:01.917Z,12.78
2022-10-05T08:10:02.461Z,12.87
2022-10-05T08:15:01.743Z,12.94
2022-10-05T08:20:02.219Z,12.99
2022-10-05T08:25:01.887Z,13.08
2022-10-05T08:30:02.183Z,13.19
2022-10-05T08:35:01.569Z,13.21
2022-10-05T08:40:02.207Z,13.33
2022-10-05T08:45:01.767Z,13.44
2022-10-05T08:50:01.495Z,13.51
2022-10-05T08:55:01.613Z,13.6
2022-10-05T09:00:02.169Z,13.8
2022-10-05T09:05:01.663Z,14.24
2022-10-05T09:10:02.057Z,14.55
2022-10-05T09:15:24.343Z,14.83
2022-10-05T09:20:01.975Z,15.06
2022-10-05T09:25:01.295Z,15.26
2022-10-05T09:30:01.959Z,15.49
2022-10-05T09:35:01.740Z,15.8
2022-10-05T09:40:01.671Z,16.2
2022-10-05T09:45:01.938Z,16.82
2022-10-05T09:50:01.591Z,17.25
2022-10-05T09:55:01.400Z,17.26
2022-10-05T10:00:01.915Z,17.72
2022-10-05T10:05:01.337Z,18.02
2022-10-05T10:10:02.041Z,18.08
2022-10-05T10:15:03.003Z,17.99
2022-10-05T10:20:01.830Z,18.02
2022-10-05T10:25:01.264Z,17.95
2022-10-05T11:10:02.085Z,18.63
2022-10-05T11:15:01.566Z,18.7
2022-10-05T11:20:05.086Z,18.84
2022-10-05T11:25:01.510Z,18.81
2022-10-05T11:30:01.562Z,18.71
2022-10-05T11:35:01.766Z,18.65
2022-10-05T11:40:01.755Z,18.76
2022-10-05T11:45:02.105Z,18.8
2022-10-05T11:50:01.981Z,18.62
2022-10-05T11:55:11.465Z,18.61
2022-10-05T12:00:01.389Z,18.46
2022-10-05T12:05:01.959Z,18.33
2022-10-05T12:10:01.767Z,18.39
2022-10-05T12:15:01.709Z,18.29
2022-10-05T12:20:01.554Z,18.4
2022-10-05T12:25:01.892Z,18.41
2022-10-05T12:30:01.369Z,18.42
2022-10-05T12:35:02.234Z,18.44
2022-10-05T12:40:01.914Z,18.42
2022-10-05T12:45:01.507Z,18.49
2022-10-05T12:50:02.242Z,18.34
2022-10-05T12:55:01.512Z,18.4
2022-10-05T13:00:02.082Z,18.46
2022-10-05T13:05:01.879Z,18.46
2022-10-05T13:10:02.225Z,18.5
2022-10-05T13:15:01.963Z,18.28
2022-10-05T13:20:01.648Z,18.39
2022-10-05T13:25:01.710Z,18.37
2022-10-05T13:30:01.779Z,18.43
2022-10-05T13:35:01.878Z,18.34
2022-10-05T13:40:01.475Z,18.33
2022-10-05T13:45:01.725Z,18.48
2022-10-05T13:50:02.077Z,18.51
2022-10-05T13:55:01.380Z,18.5
2022-10-05T14:00:01.604Z,18.59
2022-10-05T14:05:02.081Z,18.62
2022-10-05T14:10:01.357Z,18.54
2022-10-05T14:15:01.900Z,18.47
2022-10-05T14:20:01.460Z,18.52
2022-10-05T14:25:01.753Z,18.63
2022-10-05T14:30:01.316Z,18.78
2022-10-05T14:35:02.093Z,18.83
2022-10-05T14:40:01.312Z,18.83
2022-10-05T14:45:01.944Z,18.84
2022-10-05T14:50:02.035Z,18.79
2022-10-05T14:55:01.362Z,18.77
2022-10-05T15:00:01.768Z,18.67
2022-10-05T15:05:01.420Z,18.64
2022-10-05T15:10:01.606Z,18.61
2022-10-05T15:15:01.895Z,18.54
2022-10-05T15:20:02.181Z,18.56
2022-10-05T15:25:02.111Z,18.62
2022-10-05T15:30:01.517Z,18.48
2022-10-05T15:35:02.160Z,18.44
2022-10-05T15:40:01.954Z,18.37
2022-10-05T15:45:01.407Z,18.3
2022-10-05T15:50:01.929Z,18.21
2022-10-05T15:55:02.076Z,18.25
2022-10-05T16:00:01.640Z,18.17
2022-10-05T16:05:04.777Z,18.09
2022-10-05T16:10:01.499Z,18.06
2022-10-05T16:15:01.918Z,17.96
2022-10-05T16:20:01.765Z,17.9
2022-10-05T16:25:01.805Z,17.88
2022-10-05T16:30:01.613Z,17.84
2022-10-05T16:35:01.471Z,17.81
2022-10-05T16:40:01.685Z,18.09
2022-10-05T16:45:01.888Z,18.35
2022-10-05T16:50:01.873Z,18.52
2022-10-05T16:55:01.483Z,18.69
2022-10-05T17:00:02.055Z,18.82
2022-10-05T17:05:01.955Z,18.93
2022-10-05T17:10:01.717Z,19
2022-10-05T17:15:02.115Z,19.06
2022-10-05T17:20:02.392Z,18.98
2022-10-05T17:25:01.865Z,18.92
2022-10-05T17:30:01.544Z,18.87
2022-10-05T17:35:01.743Z,18.77
2022-10-05T17:40:01.528Z,18.49
2022-10-05T17:45:02.074Z,18.08
2022-10-05T17:50:01.740Z,17.79
2022-10-05T17:55:01.518Z,17.48
2022-10-05T18:00:02.080Z,17.31
2022-10-05T18:05:02.211Z,17.16
2022-10-05T18:10:02.257Z,17.03
2022-10-05T18:15:01.414Z,17
2022-10-05T18:20:02.133Z,16.89
2022-10-05T18:25:02.068Z,16.76
2022-10-05T18:30:01.954Z,16.67
2022-10-05T18:35:02.247Z,16.61
2022-10-05T18:40:01.902Z,16.57
2022-10-05T18:45:02.037Z,16.57
2022-10-05T18:50:01.999Z,16.3
2022-10-05T18:55:02.010Z,16.1
2022-10-05T19:00:02.141Z,15.96
2022-10-05T19:05:02.178Z,15.82
2022-10-05T19:10:01.963Z,15.84
2022-10-05T19:15:01.850Z,16
2022-10-05T19:20:02.052Z,16.03
2022-10-05T19:25:02.221Z,16.11
2022-10-05T19:30:01.729Z,16
2022-10-05T19:35:02.345Z,15.86
2022-10-05T19:40:04.506Z,15.72
2022-10-05T19:45:01.426Z,15.55
2022-10-05T19:50:02.239Z,15.45
2022-10-05T19:55:02.068Z,15.73
2022-10-05T20:00:02.350Z,15.83
2022-10-05T20:05:02.285Z,15.72
2022-10-05T20:10:01.690Z,15.61
2022-10-05T20:15:01.980Z,15.56
2022-10-05T20:20:01.934Z,15.67
2022-10-05T20:25:01.892Z,15.7
2022-10-05T20:30:01.580Z,15.7
2022-10-05T20:35:01.685Z,15.63
2022-10-05T20:40:01.851Z,15.55
2022-10-05T20:45:02.187Z,15.51
2022-10-05T20:50:01.801Z,15.47
2022-10-05T20:55:01.285Z,15.45
2022-10-05T21:00:02.078Z,15.55
2022-10-05T21:05:02.232Z,15.59
2022-10-05T21:10:01.349Z,15.49
2022-10-05T21:15:02.223Z,15.39
2022-10-05T21:20:02.155Z,15.34
2022-10-05T21:25:01.571Z,15.31
2022-10-05T21:30:02.296Z,15.33
2022-10-05T21:35:01.948Z,15.37
2022-10-05T21:40:01.572Z,15.38
2022-10-05T21:45:01.635Z,15.39
2022-10-05T21:50:01.618Z,15.41
2022-10-05T21:55:02.291Z,15.48
2022-10-05T22:00:02.180Z,15.48
2022-10-05T22:05:01.633Z,15.55
2022-10-05T22:10:01.570Z,15.6
2022-10-05T22:15:01.333Z,15.7
2022-10-05T22:20:01.729Z,15.65
2022-10-05T22:25:01.694Z,15.59
2022-10-05T22:30:01.690Z,15.65
2022-10-05T22:35:01.610Z,15.87
2022-10-05T22:40:02.107Z,16.04
2022-10-05T22:45:02.123Z,16.3
2022-10-05T22:50:01.875Z,16.49
2022-10-05T22:55:01.604Z,16.6
2022-10-05T23:00:02.256Z,16
2022-10-05T23:05:01.365Z,15.53
2022-10-05T23:10:02.270Z,15.53
2022-10-05T23:15:02.521Z,15.23
2022-10-05T23:20:01.955Z,15.14
2022-10-05T23:25:02.037Z,15.01
2022-10-05T23:30:02.012Z,14.93
2022-10-05T23:35:02.118Z,14.89
2022-10-05T23:40:01.956Z,14.84
2022-10-05T23:45:01.443Z,14.81
2022-10-05T23:50:02.251Z,14.78
2022-10-05T23:55:01.641Z,14.77
